Time;durP1;ratioP1;P1;durP2;ratioP2;P2;SDS_P1;SDS_P2;PMS_P1;PMS_P2;Temp;Humidity;BMP_temperature;BMP_pressure;BME280_temperature;BME280_humidity;BME280_pressure;Samples;Min_cycle;Max_cycle;Signal;HPM_P1;HPM_P2
2023/10/27 00:01:03;;;;;;;8.38;2.20;;;;;;;17.71;61.81;92991.75;5064874;28;20028;-84
2023/10/27 00:03:28;;;;;;;8.80;1.85;;;;;;;17.65;62.54;92993.25;5065711;28;20341;-84
2023/10/27 00:05:54;;;;;;;8.38;2.17;;;;;;;17.61;62.66;93003.25;5065726;28;20025;-85
2023/10/27 00:08:19;;;;;;;10.15;2.40;;;;;;;17.50;63.62;92997.03;5065921;28;20025;-85
2023/10/27 00:10:45;;;;;;;11.68;2.42;;;;;;;17.33;63.93;93010.03;5065622;28;20032;-85
2023/10/27 00:13:10;;;;;;;14.40;2.60;;;;;;;17.24;64.61;93001.53;5065925;28;20028;-85
2023/10/27 00:15:36;;;;;;;6.85;2.17;;;;;;;17.12;65.01;92997.22;5064545;28;20028;-85
2023/10/27 00:18:02;;;;;;;10.88;2.42;;;;;;;17.01;65.67;93005.19;5063353;28;20044;-86
2023/10/27 00:20:27;;;;;;;7.15;1.85;;;;;;;16.96;66.27;93008.25;5065633;28;20200;-86
2023/10/27 00:22:53;;;;;;;7.18;3.05;;;;;;;16.90;66.46;93001.66;5065537;28;20021;-85
2023/10/27 00:25:18;;;;;;;8.43;2.03;;;;;;;16.81;66.95;92988.53;5065345;28;20258;-85
2023/10/27 00:27:44;;;;;;;6.75;2.38;;;;;;;16.75;67.65;92979.25;5065693;28;20024;-85
2023/10/27 00:30:10;;;;;;;9.70;2.80;;;;;;;16.70;67.75;92984.19;5064341;28;20134;-85
2023/10/27 00:32:36;;;;;;;12.77;2.08;;;;;;;16.65;67.72;92985.31;5065402;28;20092;-85
2023/10/27 00:35:04;;;;;;;13.52;2.97;;;;;;;16.60;68.49;92997.16;5065231;28;20025;-86
2023/10/27 00:37:33;;;;;;;9.80;2.35;;;;;;;16.54;68.28;92993.28;5065183;28;20025;-86
2023/10/27 00:39:58;;;;;;;6.45;3.00;;;;;;;16.51;68.13;92990.56;5065199;28;20084;-85
2023/10/27 00:42:24;;;;;;;6.47;2.30;;;;;;;16.46;68.48;92986.28;5065105;28;20215;-85
2023/10/27 00:44:49;;;;;;;9.40;2.30;;;;;;;16.41;69.07;92989.31;5064903;28;20044;-85
2023/10/27 00:47:15;;;;;;;9.55;2.40;;;;;;;16.29;69.45;92981.53;5080712;28;20032;-85
2023/10/27 00:49:40;;;;;;;15.30;2.75;;;;;;;16.23;69.70;92984.53;5065101;28;20021;-85
2023/10/27 00:52:06;;;;;;;10.48;2.35;;;;;;;16.22;69.77;92972.25;5063755;28;20310;-85
2023/10/27 00:54:33;;;;;;;9.60;2.42;;;;;;;16.15;70.27;92985.63;5064908;28;20138;-85
2023/10/27 00:56:59;;;;;;;17.15;2.53;;;;;;;16.13;70.38;92979.84;5064888;28;20032;-85
2023/10/27 00:59:24;;;;;;;16.55;2.38;;;;;;;16.08;70.75;92990.94;5063852;28;20028;-85
2023/10/27 01:01:50;;;;;;;12.25;3.00;;;;;;;16.02;70.66;92981.66;5064900;28;20369;-85
2023/10/27 01:04:15;;;;;;;8.50;2.45;;;;;;;16.00;71.28;92979.34;5063390;28;20025;-86
2023/10/27 01:06:42;;;;;;;5.68;2.40;;;;;;;16.03;71.36;92991.25;5063826;28;20051;-85
2023/10/27 01:09:08;;;;;;;9.45;2.35;;;;;;;16.02;71.76;93000.47;5064718;28;20048;-85
2023/10/27 01:11:33;;;;;;;9.82;3.38;;;;;;;15.96;71.72;93018.84;5064676;28;20029;-85
2023/10/27 01:14:00;;;;;;;11.43;2.15;;;;;;;15.91;71.75;93013.78;5063298;28;20070;-85
2023/10/27 01:16:25;;;;;;;8.00;2.78;;;;;;;15.79;72.13;92998.69;5064569;28;20029;-83
2023/10/27 01:18:51;;;;;;;11.98;2.55;;;;;;;15.75;72.56;93010.50;5064272;28;20369;-83
2023/10/27 01:21:16;;;;;;;10.23;3.33;;;;;;;15.75;72.42;93022.06;5064207;28;20021;-83
2023/10/27 01:23:41;;;;;;;8.40;2.67;;;;;;;15.59;72.94;93007.97;5064545;28;20028;-83
2023/10/27 01:26:07;;;;;;;10.23;2.47;;;;;;;15.60;73.26;93014.91;5063360;28;20025;-83
2023/10/27 01:28:32;;;;;;;15.32;3.00;;;;;;;15.61;73.25;93019.13;5064168;28;20035;-83
2023/10/27 01:30:58;;;;;;;8.07;2.45;;;;;;;15.61;73.38;93014.56;5064099;28;20025;-83
2023/10/27 01:33:24;;;;;;;13.43;2.85;;;;;;;15.61;73.52;93030.69;5064225;28;20251;-83
2023/10/27 01:35:51;;;;;;;8.88;2.55;;;;;;;15.58;73.40;93017.19;5063567;28;20056;-83
2023/10/27 01:38:16;;;;;;;7.95;2.38;;;;;;;15.57;73.63;92997.63;5063042;28;20020;-86
2023/10/27 01:40:42;;;;;;;13.70;3.08;;;;;;;15.57;73.85;92994.16;5063109;28;20087;-86
2023/10/27 01:43:07;;;;;;;18.98;3.58;;;;;;;15.54;74.10;93008.31;5063204;28;20028;-83
2023/10/27 01:45:32;;;;;;;14.02;2.97;;;;;;;15.55;74.19;93021.38;5063906;28;20021;-83
2023/10/27 01:47:58;;;;;;;12.00;3.15;;;;;;;15.52;74.20;93013.28;5063782;28;20028;-84
2023/10/27 01:50:23;;;;;;;14.15;2.83;;;;;;;15.51;74.65;93004.47;5063944;28;20021;-84
2023/10/27 01:52:49;;;;;;;9.63;2.90;;;;;;;15.49;74.52;92990.63;5063774;28;20323;-85
2023/10/27 01:55:14;;;;;;;10.88;3.38;;;;;;;15.48;74.83;92999.81;5063730;28;20365;-85
2023/10/27 01:57:39;;;;;;;6.82;2.63;;;;;;;15.49;75.28;92993.31;5063781;28;20021;-84
2023/10/27 02:00:07;;;;;;;12.55;3.00;;;;;;;15.50;75.55;93002.13;5079314;28;20044;-83
2023/10/27 02:02:35;;;;;;;13.50;2.90;;;;;;;15.41;75.69;92997.81;5062490;28;20032;-84
2023/10/27 02:05:05;;;;;;;9.82;3.30;;;;;;;15.37;76.31;93002.34;5063601;28;20096;-84
2023/10/27 02:07:31;;;;;;;14.93;3.95;;;;;;;15.32;76.43;92996.53;5062243;28;20032;-84
2023/10/27 02:09:59;;;;;;;6.65;2.65;;;;;;;15.33;76.86;92995.41;5063336;28;20031;-82
2023/10/27 02:12:28;;;;;;;9.90;2.83;;;;;;;15.33;76.78;92993.47;5063375;28;20097;-82
2023/10/27 02:14:53;;;;;;;8.70;3.95;;;;;;;15.34;77.00;92992.31;5063293;28;20025;-82
2023/10/27 02:17:19;;;;;;;13.98;3.20;;;;;;;15.37;76.64;92978.19;5063380;28;20100;-82
2023/10/27 02:19:45;;;;;;;11.90;3.15;;;;;;;15.40;76.62;92972.06;5062204;28;20032;-83
2023/10/27 02:22:11;;;;;;;11.52;2.85;;;;;;;15.40;76.44;92977.44;5063275;28;20017;-83
2023/10/27 02:24:40;;;;;;;17.83;3.25;;;;;;;15.37;76.26;92980.88;5063179;28;20017;-83
2023/10/27 02:27:06;;;;;;;16.00;3.53;;;;;;;15.30;76.86;92980.78;5062089;28;20021;-83
2023/10/27 02:29:32;;;;;;;15.07;2.85;;;;;;;15.20;77.03;92979.50;5063187;28;20020;-83
2023/10/27 02:31:57;;;;;;;11.88;2.97;;;;;;;15.15;77.31;92984.41;5063072;28;20127;-83
2023/10/27 02:34:23;;;;;;;14.43;3.22;;;;;;;15.12;77.55;92982.44;5063098;28;20021;-83
2023/10/27 02:36:48;;;;;;;13.20;3.35;;;;;;;15.10;77.81;92982.03;5062836;28;20016;-83
2023/10/27 02:39:14;;;;;;;15.05;3.28;;;;;;;15.00;78.21;92989.59;5062998;28;20025;-83
2023/10/27 02:41:39;;;;;;;10.70;3.38;;;;;;;14.98;78.30;92977.66;5062597;28;20056;-83
2023/10/27 02:44:05;;;;;;;13.30;4.18;;;;;;;14.99;78.32;92977.28;5062830;28;20025;-83
2023/10/27 02:46:32;;;;;;;15.85;3.45;;;;;;;15.01;78.34;92960.84;5061691;28;20108;-83
2023/10/27 02:48:58;;;;;;;17.85;3.17;;;;;;;15.02;78.48;92971.22;5061651;28;20021;-81
2023/10/27 02:51:23;;;;;;;12.93;3.30;;;;;;;15.00;78.76;92964.63;5061672;28;20315;-83
2023/10/27 02:53:49;;;;;;;14.35;4.32;;;;;;;15.01;78.86;92975.00;5062856;28;20025;-83
2023/10/27 02:56:14;;;;;;;17.30;3.50;;;;;;;15.00;78.77;92970.81;5062711;28;20377;-84
2023/10/27 02:58:40;;;;;;;10.15;3.08;;;;;;;14.96;78.67;92983.41;5062986;28;20032;-85
2023/10/27 03:01:09;;;;;;;15.48;3.50;;;;;;;14.91;79.29;92981.00;5062759;28;20024;-84
2023/10/27 03:03:35;;;;;;;15.13;3.40;;;;;;;14.92;79.34;92984.44;5062639;28;20352;-84
2023/10/27 03:06:02;;;;;;;18.38;4.40;;;;;;;14.95;79.57;92973.78;5062649;28;20039;-83
2023/10/27 03:08:27;;;;;;;13.75;3.40;;;;;;;15.00;78.98;92970.00;5062703;28;20028;-83
2023/10/27 03:10:52;;;;;;;9.55;3.25;;;;;;;15.06;79.13;92979.28;5062720;28;20017;-82
2023/10/27 03:13:18;;;;;;;12.82;3.72;;;;;;;15.07;78.50;92974.72;5061562;28;20050;-80
2023/10/27 03:15:44;;;;;;;10.15;2.83;;;;;;;15.07;78.51;92985.44;5060803;28;20066;-81
2023/10/27 03:18:10;;;;;;;8.40;3.22;;;;;;;15.10;78.62;92982.03;5059490;28;20051;-81
2023/10/27 03:20:35;;;;;;;11.05;3.65;;;;;;;15.15;78.43;92982.50;5060879;28;20029;-84
2023/10/27 03:23:01;;;;;;;11.38;4.55;;;;;;;15.14;78.30;92970.22;5061350;28;20032;-84
2023/10/27 03:25:26;;;;;;;9.32;3.20;;;;;;;15.15;78.38;92960.25;5062691;28;20017;-84
2023/10/27 03:27:52;;;;;;;14.27;3.20;;;;;;;15.15;78.15;92976.38;5061377;28;20021;-84
2023/10/27 03:30:17;;;;;;;19.98;3.10;;;;;;;15.20;78.27;92982.19;5061662;28;20020;-83
2023/10/27 03:32:42;;;;;;;21.10;4.25;;;;;;;15.22;78.08;92968.38;5062449;28;20028;-83
2023/10/27 03:35:08;;;;;;;9.63;3.28;;;;;;;15.20;78.21;92986.78;5062866;28;20016;-84
2023/10/27 03:37:33;;;;;;;8.30;3.22;;;;;;;15.17;78.17;92971.41;5061487;28;20067;-84
2023/10/27 03:39:59;;;;;;;13.48;4.13;;;;;;;15.12;78.38;92966.34;5062537;28;20043;-82
2023/10/27 03:42:25;;;;;;;16.60;3.28;;;;;;;15.12;78.29;92958.28;5062376;28;20013;-81
2023/10/27 03:44:50;;;;;;;12.13;3.38;;;;;;;15.14;78.50;92969.44;5062300;28;20020;-81
2023/10/27 03:47:16;;;;;;;10.55;3.33;;;;;;;15.04;78.35;92960.09;5062320;28;20021;-83
2023/10/27 03:49:41;;;;;;;17.17;3.40;;;;;;;15.03;78.53;92958.56;5062711;28;20307;-84
2023/10/27 03:52:09;;;;;;;20.52;3.45;;;;;;;15.04;78.60;92958.22;5062648;28;20065;-84
2023/10/27 03:54:35;;;;;;;18.15;3.95;;;;;;;15.03;78.81;92948.59;5066140;28;20222;-84
2023/10/27 03:57:01;;;;;;;9.90;3.30;;;;;;;15.07;78.88;92950.56;5066333;28;20032;-84
2023/10/27 03:59:27;;;;;;;12.70;3.00;;;;;;;15.09;78.74;92949.06;5065769;28;20029;-84
2023/10/27 04:01:52;;;;;;;11.05;3.22;;;;;;;15.09;79.00;92934.88;5065937;28;20020;-84
2023/10/27 04:04:18;;;;;;;19.25;3.70;;;;;;;15.11;78.98;92948.69;5065842;28;20028;-84
2023/10/27 04:06:44;;;;;;;12.65;3.90;;;;;;;15.08;79.09;92950.19;5065921;28;20215;-84
2023/10/27 04:09:09;;;;;;;16.58;3.20;;;;;;;15.06;79.07;92939.03;5065789;28;20021;-82
2023/10/27 04:11:34;;;;;;;14.10;3.17;;;;;;;15.02;79.15;92935.53;5065723;28;20025;-83
2023/10/27 04:14:00;;;;;;;14.55;3.13;;;;;;;15.00;79.46;92927.88;5065414;28;20028;-83
2023/10/27 04:16:25;;;;;;;10.30;3.22;;;;;;;15.03;79.30;92916.41;5065392;28;20028;-83
2023/10/27 04:18:51;;;;;;;20.08;3.35;;;;;;;15.04;79.21;92912.59;5065266;28;20037;-82
2023/10/27 04:21:16;;;;;;;16.40;3.90;;;;;;;15.07;79.35;92908.41;5065409;28;20035;-82
2023/10/27 04:23:42;;;;;;;10.73;2.92;;;;;;;15.11;78.95;92889.66;5065322;28;20330;-82
2023/10/27 04:26:08;;;;;;;13.13;3.47;;;;;;;15.09;78.80;92886.56;5064253;28;20345;-82
2023/10/27 04:28:33;;;;;;;14.63;3.15;;;;;;;15.07;79.00;92900.34;5065162;28;20089;-82
2023/10/27 04:30:59;;;;;;;9.95;3.55;;;;;;;15.09;78.87;92892.69;5063481;28;20090;-82
2023/10/27 04:33:24;;;;;;;8.65;2.97;;;;;;;15.05;78.58;92903.38;5063993;28;20043;-82
2023/10/27 04:35:50;;;;;;;15.32;2.90;;;;;;;15.04;78.73;92883.06;5065010;28;20028;-82
2023/10/27 04:38:16;;;;;;;10.73;3.20;;;;;;;15.09;78.50;92900.00;5065030;28;20067;-83
2023/10/27 04:40:41;;;;;;;11.40;3.30;;;;;;;15.05;78.86;92894.56;5063810;28;20024;-84
2023/10/27 04:43:07;;;;;;;12.60;4.40;;;;;;;15.05;78.81;92906.06;5064866;28;20052;-83
2023/10/27 04:45:32;;;;;;;17.85;3.65;;;;;;;15.04;78.81;92898.38;5064803;28;20033;-82
2023/10/27 04:47:58;;;;;;;11.50;3.53;;;;;;;15.04;78.78;92901.84;5064910;28;20092;-82
2023/10/27 04:50:24;;;;;;;12.95;2.97;;;;;;;15.08;78.67;92895.75;5063480;28;20028;-82
2023/10/27 04:52:50;;;;;;;17.40;3.72;;;;;;;15.05;78.38;92908.75;5063520;28;20048;-83
2023/10/27 04:55:15;;;;;;;14.48;2.80;;;;;;;15.05;78.74;92914.13;5064686;28;20379;-84
2023/10/27 04:57:41;;;;;;;10.90;3.05;;;;;;;15.01;78.67;92918.66;5063265;28;20020;-81
2023/10/27 05:00:08;;;;;;;13.45;4.90;;;;;;;14.98;78.92;92913.25;5063203;28;20111;-83
2023/10/27 05:02:33;;;;;;;11.52;3.28;;;;;;;15.01;78.91;92920.59;5064592;28;20044;-82
2023/10/27 05:04:59;;;;;;;16.13;2.95;;;;;;;15.03;78.91;92908.34;5062873;28;20021;-82
2023/10/27 05:07:25;;;;;;;13.05;3.00;;;;;;;15.01;78.96;92917.91;5063256;28;20025;-82
2023/10/27 05:09:51;;;;;;;11.60;2.90;;;;;;;15.02;78.94;92920.22;5064319;28;20149;-82
2023/10/27 05:12:17;;;;;;;12.98;3.03;;;;;;;15.07;78.88;92897.66;5064052;28;20029;-82
2023/10/27 05:14:42;;;;;;;10.98;2.90;;;;;;;15.11;78.81;92905.75;5064002;28;20021;-83
2023/10/27 05:17:08;;;;;;;16.48;3.15;;;;;;;15.14;78.74;92905.81;5064351;28;20027;-83
2023/10/27 05:19:34;;;;;;;14.57;3.13;;;;;;;15.19;78.50;92902.03;5063011;28;20071;-83
2023/10/27 05:22:04;;;;;;;13.02;2.97;;;;;;;15.24;78.18;92896.31;5062935;28;20249;-83
2023/10/27 05:24:30;;;;;;;17.40;2.83;;;;;;;15.34;78.09;92886.84;5064310;28;20104;-83
2023/10/27 05:26:55;;;;;;;13.27;2.95;;;;;;;15.40;77.86;92883.47;5079439;28;20025;-82
2023/10/27 05:29:20;;;;;;;23.25;3.40;;;;;;;15.43;77.72;92885.44;5063987;28;20127;-82
2023/10/27 05:31:46;;;;;;;17.20;4.32;;;;;;;15.51;77.47;92893.56;5063848;28;20274;-81
2023/10/27 05:34:12;;;;;;;10.38;2.85;;;;;;;15.55;76.93;92897.84;5064123;28;20310;-82
2023/10/27 05:36:37;;;;;;;14.90;3.83;;;;;;;15.61;76.84;92900.97;5063740;28;20051;-81
2023/10/27 05:39:03;;;;;;;8.05;3.40;;;;;;;15.67;76.31;92888.75;5063950;28;20104;-81
2023/10/27 05:41:28;;;;;;;14.65;4.20;;;;;;;15.76;76.15;92893.88;5063467;28;20235;-81
2023/10/27 05:43:54;;;;;;;15.90;3.38;;;;;;;15.80;75.92;92886.63;5063608;28;20021;-81
2023/10/27 05:46:20;;;;;;;19.75;3.60;;;;;;;15.89;75.28;92894.38;5063952;28;20196;-82
2023/10/27 05:48:46;;;;;;;16.60;3.20;;;;;;;15.94;75.21;92897.50;5063783;28;20032;-82
2023/10/27 05:51:11;;;;;;;11.65;3.05;;;;;;;16.01;74.67;92897.53;5063759;28;20035;-82
2023/10/27 05:53:37;;;;;;;12.45;3.00;;;;;;;16.08;74.29;92902.22;5063540;28;20029;-82
2023/10/27 05:56:03;;;;;;;14.45;4.13;;;;;;;16.16;73.99;92906.53;5062442;28;20097;-82
2023/10/27 05:58:32;;;;;;;12.88;4.40;;;;;;;16.20;73.82;92920.78;5063594;28;20275;-82
2023/10/27 06:00:58;;;;;;;15.13;3.17;;;;;;;16.31;73.39;92939.69;5063398;28;20046;-82
2023/10/27 06:03:24;;;;;;;20.35;3.08;;;;;;;16.29;72.57;92927.75;5063526;28;20035;-82
2023/10/27 06:05:51;;;;;;;10.93;3.30;;;;;;;16.30;72.47;92940.03;5063381;28;20021;-82
2023/10/27 06:08:17;;;;;;;27.02;3.38;;;;;;;16.34;72.99;92948.91;5063377;28;20050;-82
2023/10/27 06:10:42;;;;;;;20.60;3.78;;;;;;;16.39;73.15;92949.34;5063191;28;20025;-82
2023/10/27 06:13:07;;;;;;;14.55;3.85;;;;;;;16.34;73.22;92955.06;5063410;28;20032;-84
2023/10/27 06:15:33;;;;;;;13.15;3.20;;;;;;;16.38;72.71;92934.34;5061229;28;20307;-84
2023/10/27 06:17:59;;;;;;;6.82;2.95;;;;;;;16.43;73.11;92935.94;5061762;28;20108;-82
2023/10/27 06:20:24;;;;;;;9.23;2.95;;;;;;;16.48;72.98;92942.88;5062009;28;20017;-78
2023/10/27 06:22:50;;;;;;;18.02;2.80;;;;;;;16.55;72.83;92943.72;5063131;28;20016;-78
2023/10/27 06:25:15;;;;;;;13.40;3.30;;;;;;;16.70;74.33;92938.44;5063144;28;20024;-77
2023/10/27 06:27:40;;;;;;;17.00;3.53;;;;;;;16.81;73.85;92936.63;5063125;28;20025;-76
2023/10/27 06:30:07;;;;;;;11.30;2.55;;;;;;;16.91;73.02;92968.22;5061774;28;20024;-77
2023/10/27 06:32:32;;;;;;;13.25;3.67;;;;;;;17.02;71.59;92944.84;5062551;28;20021;-77
2023/10/27 06:34:57;;;;;;;14.05;3.60;;;;;;;17.14;70.28;92937.59;5063033;28;20192;-75
2023/10/27 06:37:23;;;;;;;11.75;2.38;;;;;;;17.20;69.86;92957.66;5062890;28;20126;-76
2023/10/27 06:39:50;;;;;;;15.93;3.33;;;;;;;17.28;69.43;92940.38;5062828;28;20062;-75
2023/10/27 06:42:16;;;;;;;12.27;3.88;;;;;;;17.32;70.04;92922.31;5062974;28;20152;-76
2023/10/27 06:44:41;;;;;;;19.83;4.35;;;;;;;17.43;68.85;92898.09;5063156;28;20167;-75
2023/10/27 06:47:07;;;;;;;9.75;3.05;;;;;;;17.49;70.26;92920.06;5062788;28;20219;-76
2023/10/27 06:49:32;;;;;;;16.08;3.20;;;;;;;17.47;68.42;92927.75;5062856;28;20028;-76
2023/10/27 06:51:58;;;;;;;15.30;3.53;;;;;;;17.45;67.55;92923.50;5062443;28;20036;-76
2023/10/27 06:54:24;;;;;;;17.27;3.47;;;;;;;17.51;67.51;92953.56;5062687;28;20181;-75
2023/10/27 06:56:50;;;;;;;12.18;3.03;;;;;;;17.57;67.29;92948.56;5062474;28;20017;-78
2023/10/27 06:59:16;;;;;;;16.48;2.47;;;;;;;17.64;66.81;92932.44;5062835;28;20103;-79
2023/10/27 07:01:44;;;;;;;30.98;3.40;;;;;;;17.74;66.18;92930.91;5062915;28;20017;-75
2023/10/27 07:04:09;;;;;;;9.70;2.75;;;;;;;17.76;66.21;92948.25;5062485;28;20028;-77
2023/10/27 07:06:35;;;;;;;14.30;3.35;;;;;;;17.70;65.18;92936.28;5061512;28;20033;-78
2023/10/27 07:09:00;;;;;;;9.68;2.53;;;;;;;17.69;65.60;92942.84;5061261;28;20078;-80
2023/10/27 07:11:26;;;;;;;19.75;3.08;;;;;;;17.72;65.83;92931.28;5062531;28;20341;-79
2023/10/27 07:13:51;;;;;;;9.43;2.58;;;;;;;17.70;64.97;92917.44;5062758;28;20027;-78
2023/10/27 07:16:17;;;;;;;12.40;3.15;;;;;;;17.76;65.62;92934.00;5062510;28;20017;-79
2023/10/27 07:18:42;;;;;;;10.18;2.70;;;;;;;17.84;65.14;92944.44;5062478;28;20049;-77
2023/10/27 07:21:09;;;;;;;11.23;4.15;;;;;;;17.92;65.54;92949.88;5061574;28;20028;-80
2023/10/27 07:23:36;;;;;;;9.10;2.50;;;;;;;18.03;65.58;92919.09;5062318;28;20093;-78
2023/10/27 07:26:15;;;;;;;12.43;2.75;;;;;;;18.07;64.33;92929.88;5062324;28;20071;-79
2023/10/27 07:28:42;;;;;;;16.98;3.05;;;;;;;18.08;64.40;92934.13;5065648;28;20307;-76
2023/10/27 07:31:11;;;;;;;12.68;2.60;;;;;;;18.06;64.16;92924.88;5066528;28;20041;-78
2023/10/27 07:33:38;;;;;;;10.20;2.42;;;;;;;18.11;64.56;92936.03;5066519;28;20032;-77
2023/10/27 07:36:07;;;;;;;10.82;3.33;;;;;;;18.11;64.64;92940.66;5066045;28;20031;-78
2023/10/27 07:38:34;;;;;;;9.85;2.88;;;;;;;18.14;64.57;92932.59;5065987;28;20052;-77
2023/10/27 07:41:00;;;;;;;15.00;2.88;;;;;;;18.21;64.45;92942.59;5066142;28;20023;-79
2023/10/27 07:43:26;;;;;;;7.75;3.10;;;;;;;18.27;64.36;92945.69;5066159;28;20040;-82
2023/10/27 07:45:54;;;;;;;9.38;2.97;;;;;;;18.32;63.66;92932.63;5066135;28;20096;-76
2023/10/27 07:48:20;;;;;;;21.95;3.20;;;;;;;18.36;63.50;92938.00;5065704;28;20330;-75
2023/10/27 07:50:45;;;;;;;11.20;3.03;;;;;;;18.46;63.47;92953.44;5065960;28;20036;-75
2023/10/27 07:53:10;;;;;;;26.85;3.40;;;;;;;18.56;63.05;92935.69;5065991;28;20035;-75
2023/10/27 07:55:36;;;;;;;11.30;3.40;;;;;;;18.69;62.65;92953.06;5065949;28;20023;-75
2023/10/27 07:58:04;;;;;;;12.32;2.92;;;;;;;18.75;62.33;92956.91;5065781;28;20097;-75
2023/10/27 08:00:30;;;;;;;13.90;3.55;;;;;;;18.82;62.34;92916.41;5065859;28;20188;-75
2023/10/27 08:02:57;;;;;;;12.18;3.28;;;;;;;18.91;61.30;92917.94;5065651;28;20020;-75
2023/10/27 08:05:22;;;;;;;9.73;2.70;;;;;;;18.81;60.51;92920.28;5065699;28;20023;-75
2023/10/27 08:07:48;;;;;;;10.25;2.83;;;;;;;18.86;60.72;92915.66;5065714;28;20016;-75
2023/10/27 08:10:14;;;;;;;21.88;3.72;;;;;;;18.94;60.06;92925.28;5065545;28;20036;-75
2023/10/27 08:12:40;;;;;;;12.13;3.10;;;;;;;18.96;60.37;92915.63;5065677;28;20223;-75
2023/10/27 08:15:05;;;;;;;11.65;2.97;;;;;;;19.00;60.61;92912.94;5065666;28;20083;-75
2023/10/27 08:17:34;;;;;;;15.23;3.25;;;;;;;18.93;60.16;92908.31;5065480;28;20017;-75
2023/10/27 08:20:01;;;;;;;13.77;3.70;;;;;;;18.93;60.60;92916.44;5065366;28;20021;-75
2023/10/27 08:22:26;;;;;;;17.65;3.42;;;;;;;19.05;60.85;92896.34;5065422;28;20017;-75
2023/10/27 08:24:52;;;;;;;14.95;3.60;;;;;;;19.09;60.79;92899.81;5065492;28;20303;-74
2023/10/27 08:27:18;;;;;;;20.08;3.95;;;;;;;19.14;60.89;92894.00;5065599;28;20024;-76
2023/10/27 08:29:43;;;;;;;10.35;3.50;;;;;;;19.15;60.20;92897.47;5065464;28;20024;-76
2023/10/27 08:32:09;;;;;;;20.75;3.78;;;;;;;19.16;59.82;92896.31;5065180;28;20319;-76
2023/10/27 08:34:38;;;;;;;14.23;3.63;;;;;;;19.18;60.42;92910.97;5065174;28;20071;-76
2023/10/27 08:37:03;;;;;;;15.68;4.40;;;;;;;19.27;60.24;92905.13;5064922;28;20053;-74
2023/10/27 08:39:32;;;;;;;12.90;3.90;;;;;;;19.38;59.99;92895.06;5064247;28;20227;-73
2023/10/27 08:41:58;;;;;;;12.00;3.60;;;;;;;19.44;59.77;92890.81;5065154;28;20307;-74
2023/10/27 08:44:23;;;;;;;24.17;3.38;;;;;;;19.45;59.30;92903.13;5064936;28;20032;-73
2023/10/27 08:46:49;;;;;;;13.23;3.03;;;;;;;19.45;60.04;92899.69;5064791;28;20373;-74
2023/10/27 08:49:15;;;;;;;13.77;3.50;;;;;;;19.49;59.12;92900.44;5064748;28;20025;-74
2023/10/27 08:51:42;;;;;;;13.10;4.50;;;;;;;19.33;59.30;92897.41;5064964;28;20036;-73
2023/10/27 08:54:07;;;;;;;18.10;3.03;;;;;;;19.37;59.92;92906.28;5065013;28;20028;-74
2023/10/27 08:56:33;;;;;;;13.40;3.47;;;;;;;19.32;58.90;92869.63;5064810;28;20036;-74
2023/10/27 08:59:00;;;;;;;16.88;3.03;;;;;;;19.30;56.84;92877.34;5063583;28;20036;-72
2023/10/27 09:01:26;;;;;;;7.38;2.30;;;;;;;19.27;57.52;92855.75;5064588;28;20045;-73
2023/10/27 09:04:11;;;;;;;9.32;1.95;;;;;;;19.32;58.84;92866.94;5064503;28;20024;-73
2023/10/27 09:06:38;;;;;;;9.35;2.60;;;;;;;19.40;58.32;92873.84;5064703;28;20019;-74
2023/10/27 09:09:06;;;;;;;8.77;2.10;;;;;;;19.48;57.52;92871.09;5064723;28;20075;-74
2023/10/27 09:11:48;;;;;;;10.88;3.67;;;;;;;19.57;57.50;92866.03;5064511;28;20017;-73
2023/10/27 09:14:18;;;;;;;11.50;2.97;;;;;;;19.69;56.67;92889.16;5064473;28;20016;-73
2023/10/27 09:16:44;;;;;;;6.78;2.58;;;;;;;19.80;56.85;92879.88;5063772;28;20066;-74
2023/10/27 09:19:26;;;;;;;12.45;2.00;;;;;;;19.97;56.49;92869.34;5063932;28;20364;-75
2023/10/27 09:21:54;;;;;;;12.75;2.88;;;;;;;20.11;56.98;92869.25;5064197;28;20204;-75
2023/10/27 09:24:30;;;;;;;6.75;3.03;;;;;;;20.33;56.03;92844.72;5062969;28;20035;-75
2023/10/27 09:26:59;;;;;;;12.00;2.42;;;;;;;20.51;54.49;92858.84;5063098;28;20215;-75
2023/10/27 09:29:25;;;;;;;9.00;2.10;;;;;;;20.74;53.23;92866.44;5064335;28;20353;-75
2023/10/27 09:31:51;;;;;;;13.23;2.35;;;;;;;20.96;52.45;92869.69;5064189;28;20029;-76
2023/10/27 09:34:19;;;;;;;10.35;2.40;;;;;;;21.19;50.94;92869.06;5064506;28;20029;-76
2023/10/27 09:36:46;;;;;;;7.75;1.95;;;;;;;21.29;49.94;92837.59;5064222;28;20028;-76
2023/10/27 09:39:17;;;;;;;12.63;2.67;;;;;;;21.49;50.52;92826.91;5064047;28;20124;-76
2023/10/27 09:41:47;;;;;;;13.52;1.75;;;;;;;21.65;48.88;92826.31;5064174;28;20028;-76
2023/10/27 09:44:19;;;;;;;7.50;1.00;;;;;;;21.79;45.97;92819.94;5063892;28;20021;-76
2023/10/27 09:46:54;;;;;;;5.20;1.77;;;;;;;21.85;47.58;92850.84;5063801;28;20044;-77
2023/10/27 09:49:30;;;;;;;14.73;1.75;;;;;;;21.82;45.84;92814.47;5063644;28;20025;-75
2023/10/27 09:51:59;;;;;;;9.57;2.58;;;;;;;21.84;46.39;92806.69;5063418;28;20029;-77
2023/10/27 09:54:32;;;;;;;12.25;1.85;;;;;;;21.79;46.12;92823.41;5063619;28;20027;-76
2023/10/27 09:57:00;;;;;;;8.63;1.75;;;;;;;21.78;47.89;92811.03;5063440;28;20049;-75
2023/10/27 09:59:28;;;;;;;6.30;2.10;;;;;;;21.89;47.12;92829.88;5063706;28;20326;-77
2023/10/27 10:01:55;;;;;;;5.53;1.48;;;;;;;21.89;46.60;92818.25;5063690;28;20227;-76
2023/10/27 10:05:00;;;;;;;8.48;1.50;;;;;;;21.99;45.78;92822.75;5063279;28;20342;-75
2023/10/27 10:07:31;;;;;;;12.00;1.40;;;;;;;21.89;45.52;92808.16;5021632;28;20312;-75
2023/10/27 10:09:58;;;;;;;6.40;1.60;;;;;;;21.96;45.77;92823.56;5021896;28;20033;-74
2023/10/27 10:12:24;;;;;;;8.65;1.38;;;;;;;21.91;44.72;92808.53;5043020;28;20046;-74
2023/10/27 10:14:50;;;;;;;7.38;1.70;;;;;;;21.84;44.90;92795.84;5062937;28;20264;-75
2023/10/27 10:17:38;;;;;;;14.68;1.58;;;;;;;21.96;46.02;92818.13;5063189;28;20029;-75
2023/10/27 10:20:03;;;;;;;9.02;1.45;;;;;;;22.08;46.14;92814.84;5061910;28;20121;-75
2023/10/27 10:22:38;;;;;;;4.10;1.02;;;;;;;22.12;43.81;92831.84;5063093;28;20172;-76
2023/10/27 10:25:19;;;;;;;3.78;1.52;;;;;;;22.02;43.81;92816.50;5063115;28;20112;-74
2023/10/27 10:28:09;;;;;;;4.20;1.00;;;;;;;21.73;44.37;92824.28;5062779;28;20028;-75
2023/10/27 10:30:37;;;;;;;5.25;1.15;;;;;;;21.70;44.44;92808.84;5062992;28;20345;-82
2023/10/27 10:33:19;;;;;;;4.68;1.27;;;;;;;21.75;44.34;92809.13;5062878;28;20201;-79
2023/10/27 10:35:49;;;;;;;3.35;1.20;;;;;;;21.86;45.20;92821.78;5062087;28;20322;-81
2023/10/27 10:38:26;;;;;;;3.50;1.00;;;;;;;22.00;43.74;92814.22;5061456;28;20025;-82
2023/10/27 10:40:57;;;;;;;2.25;0.82;;;;;;;22.02;42.75;92789.38;5061572;28;20029;-81
2023/10/27 10:43:32;;;;;;;5.10;1.00;;;;;;;22.03;42.43;92823.47;5061669;28;20052;-81
2023/10/27 10:46:10;;;;;;;6.28;1.30;;;;;;;21.64;43.67;92770.56;5061246;28;20021;-80
2023/10/27 10:48:46;;;;;;;10.65;1.10;;;;;;;21.60;43.56;92796.97;5060976;28;20049;-80
2023/10/27 10:53:57;;;;;;;5.25;0.65;;;;;;;21.70;43.13;92792.56;5060825;28;20060;-81
2023/10/27 10:56:31;;;;;;;6.32;1.35;;;;;;;21.76;43.29;92761.88;5059705;28;20016;-81
2023/10/27 10:58:56;;;;;;;6.53;1.10;;;;;;;;;;5060482;28;20027;-80
2023/10/27 11:01:22;;;;;;;7.22;1.02;;;;;;;21.77;43.01;92798.66;5063186;28;20108;-80
2023/10/27 11:03:52;;;;;;;6.45;1.17;;;;;;;21.68;43.36;92792.97;5068265;28;20219;-80
2023/10/27 11:06:22;;;;;;;6.97;1.15;;;;;;;21.73;44.15;92784.38;5068113;28;20063;-80
2023/10/27 11:08:47;;;;;;;6.22;1.10;;;;;;;21.72;43.61;92795.66;5067918;28;20048;-80
2023/10/27 11:11:14;;;;;;;5.68;0.90;;;;;;;21.80;43.82;92775.38;5069630;28;20044;-80
2023/10/27 11:13:43;;;;;;;7.55;1.10;;;;;;;21.80;43.53;92765.28;5069470;28;20051;-80
2023/10/27 11:16:16;;;;;;;7.97;1.73;;;;;;;21.89;43.45;92758.59;5069577;28;20029;-80
2023/10/27 11:18:43;;;;;;;7.80;1.58;;;;;;;21.99;43.58;92780.09;5069185;28;20060;-80
2023/10/27 11:21:19;;;;;;;6.25;1.35;;;;;;;22.15;43.54;92765.16;5069485;28;20021;-80
2023/10/27 11:23:46;;;;;;;5.10;1.27;;;;;;;22.25;43.25;92772.38;5069480;28;20056;-79
2023/10/27 11:26:11;;;;;;;6.68;0.85;;;;;;;22.34;42.17;92778.03;5069304;28;20244;-80
2023/10/27 11:28:42;;;;;;;14.93;2.05;;;;;;;22.45;42.94;92758.84;5069372;28;20023;-81
2023/10/27 11:31:15;;;;;;;3.77;1.47;;;;;;;22.44;41.65;92746.44;5069289;28;20045;-81